createdAt,value
2018-03-03T00:00:46.258Z,58.98
2018-03-03T00:03:14.673Z,58.85
2018-03-03T00:05:43.126Z,58.79
2018-03-03T00:08:11.564Z,58.91
2018-03-03T00:10:40.000Z,58.86
2018-03-03T00:13:08.488Z,59.12
2018-03-03T00:15:36.940Z,58.60
2018-03-03T00:18:05.377Z,58.94
2018-03-03T00:20:33.851Z,58.96
2018-03-03T00:23:02.263Z,59.12
2018-03-03T00:25:30.694Z,59.21
2018-03-03T00:27:59.172Z,59.04
2018-03-03T00:30:27.599Z,59.36
2018-03-03T00:32:56.017Z,59.02
2018-03-03T00:35:24.486Z,59.11
2018-03-03T00:37:52.917Z,59.00
2018-03-03T00:40:21.340Z,59.36
2018-03-03T00:42:49.795Z,59.32
2018-03-03T00:45:18.215Z,59.35
2018-03-03T00:47:46.629Z,59.14
2018-03-03T00:50:15.109Z,58.93
2018-03-03T00:52:43.545Z,58.99
2018-03-03T00:55:11.960Z,58.93
2018-03-03T00:57:40.441Z,59.45
2018-03-03T01:00:08.855Z,59.31
2018-03-03T01:02:37.281Z,59.73
2018-03-03T01:05:05.762Z,59.59
2018-03-03T01:07:34.214Z,59.61
2018-03-03T01:10:02.630Z,59.86
2018-03-03T01:12:31.101Z,60.05
2018-03-03T01:14:59.527Z,60.20
2018-03-03T01:17:27.959Z,60.21
2018-03-03T01:19:56.431Z,60.42
2018-03-03T01:22:24.870Z,60.61
2018-03-03T01:24:53.294Z,60.92
2018-03-03T01:27:21.755Z,61.05
2018-03-03T01:29:50.184Z,61.04
2018-03-03T01:32:18.611Z,61.03
2018-03-03T01:34:47.094Z,61.13
2018-03-03T01:37:15.528Z,61.05
2018-03-03T01:39:43.956Z,61.12
2018-03-03T01:42:12.425Z,61.32
2018-03-03T01:44:40.855Z,61.57
2018-03-03T01:47:09.299Z,61.51
2018-03-03T01:49:37.775Z,61.59
2018-03-03T01:52:06.194Z,61.60
2018-03-03T01:54:34.628Z,61.76
2018-03-03T01:57:03.094Z,61.49
2018-03-03T01:59:31.510Z,61.56
2018-03-03T02:01:59.936Z,61.46
2018-03-03T02:04:28.394Z,61.27
2018-03-03T02:06:56.805Z,61.64
2018-03-03T02:09:25.222Z,61.57
2018-03-03T02:11:53.670Z,61.06
2018-03-03T02:14:22.101Z,61.08
2018-03-03T02:16:50.537Z,60.77
2018-03-03T02:19:19.016Z,60.75
2018-03-03T02:21:47.442Z,60.81
2018-03-03T02:24:15.878Z,60.74
2018-03-03T02:26:44.364Z,60.90
2018-03-03T02:29:12.802Z,61.10
2018-03-03T02:31:41.234Z,61.28
2018-03-03T02:34:09.694Z,61.53
2018-03-03T02:36:38.140Z,61.64
2018-03-03T02:39:06.585Z,61.76
2018-03-03T02:41:35.061Z,61.76
2018-03-03T02:44:03.518Z,61.66
2018-03-03T02:46:31.939Z,61.71
2018-03-03T02:49:00.390Z,61.75
2018-03-03T02:51:28.855Z,61.95
2018-03-03T02:53:57.279Z,61.96
2018-03-03T02:56:25.930Z,62.00
2018-03-03T02:58:54.366Z,62.02
2018-03-03T03:01:22.779Z,62.17
2018-03-03T03:03:51.245Z,62.01
2018-03-03T03:06:19.680Z,62.17
2018-03-03T03:08:48.112Z,62.28
2018-03-03T03:11:16.567Z,62.50
2018-03-03T03:13:45.002Z,62.46
2018-03-03T03:16:13.418Z,62.28
2018-03-03T03:18:41.870Z,62.32
2018-03-03T03:21:10.290Z,62.21
2018-03-03T03:23:38.737Z,62.50
2018-03-03T03:26:07.207Z,62.58
2018-03-03T03:28:35.626Z,62.60
2018-03-03T03:31:04.068Z,62.62
2018-03-03T03:33:32.542Z,62.72
2018-03-03T03:36:00.969Z,62.88
2018-03-03T03:38:29.400Z,62.87
2018-03-03T03:40:57.880Z,62.83
2018-03-03T03:43:26.316Z,63.12
2018-03-03T03:45:54.752Z,63.20
2018-03-03T03:48:23.240Z,63.29
2018-03-03T03:50:51.655Z,63.31
2018-03-03T03:53:20.066Z,63.25
2018-03-03T03:55:48.537Z,63.21
2018-03-03T03:58:16.968Z,62.89
2018-03-03T04:00:45.386Z,62.85
2018-03-03T04:03:13.870Z,62.90
2018-03-03T04:05:42.295Z,62.80
2018-03-03T04:08:10.728Z,63.03
2018-03-03T04:10:39.235Z,63.01
2018-03-03T04:13:07.672Z,62.77
2018-03-03T04:15:36.111Z,62.99
2018-03-03T04:18:04.570Z,62.95
2018-03-03T04:20:33.015Z,63.03
2018-03-03T04:23:01.449Z,63.17
2018-03-03T04:25:29.946Z,63.32
2018-03-03T04:27:58.392Z,63.57
2018-03-03T04:30:26.837Z,63.74
2018-03-03T04:32:55.322Z,63.99
2018-03-03T04:35:23.757Z,63.83
2018-03-03T04:37:52.209Z,63.99
2018-03-03T04:40:20.847Z,64.03
2018-03-03T04:42:49.277Z,63.93
2018-03-03T04:45:17.708Z,64.25
2018-03-03T04:47:46.197Z,64.12
2018-03-03T04:50:14.647Z,64.34
2018-03-03T04:52:43.091Z,64.29
2018-03-03T04:55:11.570Z,64.52
2018-03-03T04:57:40.002Z,64.47
2018-03-03T05:00:14.005Z,64.48
2018-03-03T05:02:47.939Z,64.66
2018-03-03T05:05:18.275Z,64.72
2018-03-03T05:07:55.200Z,64.77
2018-03-03T05:10:26.036Z,64.89
2018-03-03T05:12:55.284Z,64.67
2018-03-03T05:15:29.382Z,64.86
2018-03-03T05:18:03.436Z,64.74
2018-03-03T05:20:34.485Z,64.93
2018-03-03T05:23:08.330Z,64.94
2018-03-03T05:25:42.777Z,64.85
2018-03-03T05:31:22.602Z,65.23
2018-03-03T05:36:59.475Z,65.10
2018-03-03T05:39:33.502Z,65.30
2018-03-03T05:45:13.289Z,65.54
2018-03-03T05:47:49.209Z,65.55
2018-03-03T05:53:34.385Z,65.55
2018-03-03T05:56:11.153Z,65.61
2018-03-03T05:58:45.358Z,65.70
2018-03-03T06:01:20.401Z,65.41
2018-03-03T06:03:59.759Z,65.55
2018-03-03T06:09:33.392Z,65.73
2018-03-03T06:12:01.837Z,65.70
2018-03-03T06:14:30.277Z,65.79
2018-03-03T06:16:58.749Z,65.93
2018-03-03T06:19:27.192Z,66.14
2018-03-03T06:21:55.658Z,66.15
2018-03-03T06:24:24.134Z,66.03
2018-03-03T06:26:52.567Z,66.03
2018-03-03T06:29:20.998Z,66.04
2018-03-03T06:31:49.465Z,66.11
2018-03-03T06:34:17.897Z,66.12
2018-03-03T06:36:46.317Z,65.94
2018-03-03T06:39:14.782Z,65.86
2018-03-03T06:41:43.215Z,65.95
2018-03-03T06:44:11.627Z,65.82
2018-03-03T06:46:40.097Z,65.86
2018-03-03T06:49:08.515Z,65.95
2018-03-03T06:51:36.946Z,65.96
2018-03-03T06:54:05.433Z,65.93
2018-03-03T06:56:33.867Z,65.77
2018-03-03T06:59:02.301Z,65.97
2018-03-03T07:01:30.771Z,65.90
2018-03-03T07:03:59.206Z,65.73
2018-03-03T07:06:27.649Z,65.77
2018-03-03T07:08:56.129Z,65.94
2018-03-03T07:11:24.570Z,65.89
2018-03-03T07:13:53.037Z,65.54
2018-03-03T07:16:21.512Z,65.48
2018-03-03T07:18:49.923Z,65.58
2018-03-03T07:21:18.409Z,65.71
2018-03-03T07:23:46.902Z,65.48
2018-03-03T07:26:15.333Z,65.41
2018-03-03T07:28:43.767Z,65.40
2018-03-03T07:31:12.241Z,65.53
2018-03-03T07:33:40.673Z,65.50
2018-03-03T07:36:09.128Z,65.31
2018-03-03T07:38:37.602Z,64.99
2018-03-03T07:41:06.023Z,64.94
2018-03-03T07:43:34.457Z,65.06
2018-03-03T07:46:02.922Z,65.06
2018-03-03T07:48:31.364Z,65.21
2018-03-03T07:50:59.828Z,64.83
2018-03-03T07:53:28.318Z,64.66
2018-03-03T07:55:56.752Z,64.50
2018-03-03T08:01:26.153Z,64.52
2018-03-03T08:03:54.651Z,64.41
2018-03-03T08:06:23.072Z,64.09
2018-03-03T08:08:51.502Z,63.54
2018-03-03T08:11:19.974Z,63.55
2018-03-03T08:13:48.408Z,63.23
2018-03-03T08:16:16.849Z,63.38
2018-03-03T08:18:45.317Z,63.32
2018-03-03T08:21:13.813Z,62.27
2018-03-03T08:23:42.234Z,62.40
2018-03-03T08:26:10.705Z,62.21
2018-03-03T08:28:39.140Z,62.17
2018-03-03T08:31:07.600Z,61.83
2018-03-03T08:33:36.107Z,62.00
2018-03-03T08:36:04.534Z,61.92
2018-03-03T08:38:32.958Z,61.35
2018-03-03T08:41:01.423Z,61.43
2018-03-03T08:43:29.851Z,61.18
2018-03-03T08:45:58.278Z,60.77
2018-03-03T08:48:26.753Z,60.42
2018-03-03T08:50:55.193Z,60.13
2018-03-03T08:53:23.615Z,60.28
2018-03-03T08:55:52.075Z,59.53
2018-03-03T08:58:20.501Z,59.94
2018-03-03T09:00:48.937Z,59.89
2018-03-03T09:03:17.426Z,59.81
2018-03-03T09:05:45.838Z,59.56
2018-03-03T09:08:14.270Z,58.62
2018-03-03T09:10:42.778Z,58.51
2018-03-03T09:13:11.261Z,57.60
2018-03-03T09:15:39.694Z,57.07
2018-03-03T09:18:08.167Z,56.94
2018-03-03T09:20:36.611Z,56.06
2018-03-03T09:23:05.048Z,56.31
2018-03-03T09:25:33.523Z,55.66
2018-03-03T09:28:01.961Z,55.35
2018-03-03T09:30:30.412Z,55.44
2018-03-03T09:32:58.893Z,55.18
2018-03-03T09:35:27.330Z,55.27
2018-03-03T09:37:55.782Z,55.68
2018-03-03T09:40:24.248Z,55.66
2018-03-03T09:42:52.694Z,55.58
2018-03-03T09:45:21.138Z,54.97
2018-03-03T09:47:49.632Z,55.08
2018-03-03T09:50:18.080Z,54.72
2018-03-03T09:52:46.535Z,54.88
2018-03-03T09:55:15.033Z,53.78
2018-03-03T09:57:43.462Z,54.13
2018-03-03T10:00:11.971Z,54.27
2018-03-03T10:02:40.469Z,54.14
2018-03-03T10:05:08.898Z,54.12
2018-03-03T10:07:37.337Z,53.42
2018-03-03T10:10:05.832Z,53.26
2018-03-03T10:12:34.262Z,53.31
2018-03-03T10:15:02.751Z,53.40
2018-03-03T10:17:31.433Z,53.73
2018-03-03T10:19:59.873Z,53.65
2018-03-03T10:22:28.311Z,53.30
2018-03-03T10:24:56.779Z,53.58
2018-03-03T10:27:25.225Z,53.45
2018-03-03T10:29:53.668Z,53.34
2018-03-03T10:32:22.155Z,52.61
2018-03-03T10:34:50.590Z,52.66
2018-03-03T10:37:19.040Z,52.33
2018-03-03T10:39:47.614Z,52.52
2018-03-03T10:42:15.999Z,52.29
2018-03-03T10:44:44.426Z,51.74
2018-03-03T10:47:12.909Z,51.17
2018-03-03T10:49:41.383Z,51.04
2018-03-03T10:52:09.817Z,51.43
2018-03-03T10:54:38.292Z,51.56
2018-03-03T10:57:06.718Z,51.81
2018-03-03T10:59:35.142Z,51.51
2018-03-03T11:02:03.607Z,51.09
2018-03-03T11:04:32.023Z,50.74
2018-03-03T11:07:00.455Z,50.54
2018-03-03T11:09:28.958Z,50.18
2018-03-03T11:11:57.373Z,50.24
2018-03-03T11:14:25.817Z,50.47
2018-03-03T11:16:54.467Z,50.48
2018-03-03T11:19:22.912Z,50.60
2018-03-03T11:21:51.337Z,50.46
2018-03-03T11:24:19.793Z,50.57
2018-03-03T11:26:48.225Z,50.66
2018-03-03T11:29:16.664Z,49.80
2018-03-03T11:31:45.138Z,49.95
2018-03-03T11:34:13.562Z,50.07
2018-03-03T11:36:41.996Z,49.69
2018-03-03T11:39:10.485Z,49.55
2018-03-03T11:41:38.910Z,49.44
2018-03-03T11:44:07.341Z,49.65
2018-03-03T11:46:35.838Z,48.93
2018-03-03T11:49:04.295Z,48.94
2018-03-03T11:51:32.739Z,49.19
2018-03-03T11:54:01.203Z,49.31
2018-03-03T11:56:29.635Z,48.69
2018-03-03T11:58:58.066Z,48.68
2018-03-03T12:01:26.539Z,49.04
2018-03-03T12:03:54.966Z,49.17
2018-03-03T12:06:23.384Z,48.85
2018-03-03T12:08:51.875Z,48.86
2018-03-03T12:11:20.329Z,48.43
2018-03-03T12:13:48.785Z,48.46
2018-03-03T12:16:17.310Z,47.84
2018-03-03T12:18:45.757Z,47.39
2018-03-03T12:21:14.185Z,47.25
2018-03-03T12:23:42.646Z,47.85
2018-03-03T12:26:11.088Z,47.79
2018-03-03T12:28:39.541Z,47.37
2018-03-03T12:31:08.006Z,47.19
2018-03-03T12:33:36.425Z,46.97
2018-03-03T12:36:04.851Z,46.79
2018-03-03T12:38:33.337Z,46.83
2018-03-03T12:41:01.776Z,46.32
2018-03-03T12:43:30.212Z,46.46
2018-03-03T12:45:58.683Z,46.45
2018-03-03T12:48:27.130Z,46.41
2018-03-03T12:50:55.570Z,46.41
2018-03-03T12:53:24.051Z,46.29
2018-03-03T12:55:52.478Z,46.23
2018-03-03T12:58:20.918Z,45.80
2018-03-03T13:00:49.386Z,46.14
2018-03-03T13:03:17.819Z,46.08
2018-03-03T13:05:46.253Z,46.37
2018-03-03T13:08:14.749Z,46.60
2018-03-03T13:10:43.172Z,47.02
2018-03-03T13:13:11.598Z,47.20
2018-03-03T13:15:40.062Z,46.85
2018-03-03T13:18:08.486Z,46.96
2018-03-03T13:20:36.922Z,47.06
2018-03-03T13:23:05.398Z,46.90
2018-03-03T13:25:33.834Z,47.26
2018-03-03T13:28:02.281Z,46.79
2018-03-03T13:30:30.755Z,47.20
2018-03-03T13:32:59.188Z,46.74
2018-03-03T13:35:27.619Z,46.83
2018-03-03T13:37:56.082Z,47.03
2018-03-03T13:40:24.534Z,46.80
2018-03-03T13:42:52.977Z,46.81
2018-03-03T13:45:21.456Z,46.57
2018-03-03T13:47:49.882Z,47.01
2018-03-03T13:50:18.322Z,46.31
2018-03-03T13:52:46.784Z,46.24
2018-03-03T13:55:15.214Z,46.54
2018-03-03T13:57:43.642Z,45.94
2018-03-03T14:00:12.118Z,46.08
2018-03-03T14:02:40.548Z,44.81
2018-03-03T14:05:09.016Z,44.18
2018-03-03T14:07:37.488Z,44.40
2018-03-03T14:10:05.946Z,43.89
2018-03-03T14:12:34.389Z,43.49
2018-03-03T14:15:02.854Z,43.65
2018-03-03T14:17:31.308Z,43.64
2018-03-03T14:19:59.757Z,44.06
2018-03-03T14:22:28.223Z,44.42
2018-03-03T14:24:56.684Z,44.34
2018-03-03T14:27:25.136Z,44.68
2018-03-03T14:29:53.850Z,44.58
2018-03-03T14:32:22.279Z,44.71
2018-03-03T14:34:50.719Z,44.70
2018-03-03T14:37:19.186Z,44.72
2018-03-03T14:39:47.612Z,44.83
2018-03-03T14:42:16.038Z,45.20
2018-03-03T14:44:44.525Z,44.88
2018-03-03T14:47:12.947Z,44.95
2018-03-03T14:49:41.377Z,44.73
2018-03-03T14:52:09.910Z,44.62
2018-03-03T14:54:38.334Z,44.19
2018-03-03T14:57:06.753Z,44.23
2018-03-03T14:59:35.244Z,44.33
2018-03-03T15:02:03.667Z,44.02
2018-03-03T15:04:32.103Z,43.88
2018-03-03T15:07:00.574Z,43.44
2018-03-03T15:09:29.007Z,43.82
2018-03-03T15:11:57.435Z,43.70
2018-03-03T15:14:25.891Z,43.69
2018-03-03T15:16:54.329Z,44.06
2018-03-03T15:19:22.750Z,43.81
2018-03-03T15:21:51.202Z,43.64
2018-03-03T15:24:19.618Z,43.28
2018-03-03T15:26:48.052Z,43.24
2018-03-03T15:29:16.539Z,43.50
2018-03-03T15:31:44.969Z,42.92
2018-03-03T15:34:13.419Z,43.41
2018-03-03T15:36:41.916Z,43.25
2018-03-03T15:39:10.349Z,43.45
2018-03-03T15:41:38.779Z,43.42
2018-03-03T15:44:07.242Z,43.42
2018-03-03T15:46:35.671Z,43.15
2018-03-03T15:49:04.086Z,42.91
2018-03-03T15:51:32.574Z,43.12
2018-03-03T15:54:01.016Z,42.99
2018-03-03T15:56:29.462Z,42.99
2018-03-03T15:58:57.951Z,42.79
2018-03-03T16:01:27.354Z,42.84
2018-03-03T16:03:55.803Z,43.09
2018-03-03T16:06:24.300Z,42.70
2018-03-03T16:08:52.746Z,43.08
2018-03-03T16:11:21.189Z,42.96
2018-03-03T16:13:49.682Z,43.54
2018-03-03T16:16:18.125Z,43.52
2018-03-03T16:18:46.556Z,43.10
2018-03-03T16:21:15.041Z,43.30
2018-03-03T16:23:43.485Z,43.40
2018-03-03T16:26:12.290Z,43.52
2018-03-03T16:28:40.793Z,43.72
2018-03-03T16:31:09.235Z,43.91
2018-03-03T16:33:37.844Z,43.73
2018-03-03T16:36:06.345Z,44.27
2018-03-03T16:38:34.782Z,44.17
2018-03-03T16:41:03.234Z,43.75
2018-03-03T16:43:31.734Z,43.93
2018-03-03T16:46:00.189Z,44.05
2018-03-03T16:48:28.632Z,44.31
2018-03-03T16:50:57.095Z,44.10
2018-03-03T16:53:25.511Z,44.33
2018-03-03T16:55:53.944Z,44.40
2018-03-03T16:58:22.411Z,44.27
2018-03-03T17:00:50.831Z,44.40
2018-03-03T17:03:19.276Z,44.93
2018-03-03T17:05:47.763Z,44.65
2018-03-03T17:08:16.200Z,45.19
2018-03-03T17:10:44.634Z,45.55
2018-03-03T17:13:13.098Z,45.29
2018-03-03T17:15:41.538Z,45.75
2018-03-03T17:18:09.972Z,45.77
2018-03-03T17:20:38.444Z,45.56
2018-03-03T17:23:06.867Z,45.81
2018-03-03T17:25:35.313Z,46.02
2018-03-03T17:28:03.779Z,46.06
2018-03-03T17:30:32.205Z,45.87
2018-03-03T17:33:00.645Z,46.04
2018-03-03T17:35:29.108Z,46.51
2018-03-03T17:37:57.532Z,46.55
2018-03-03T17:40:25.966Z,46.67
2018-03-03T17:42:54.447Z,46.99
2018-03-03T17:45:22.889Z,46.90
2018-03-03T17:47:51.329Z,46.93
2018-03-03T17:50:19.802Z,47.29
2018-03-03T17:52:48.242Z,47.27
2018-03-03T17:55:16.698Z,47.19
2018-03-03T17:57:45.178Z,47.32
2018-03-03T18:00:13.598Z,47.12
2018-03-03T18:02:42.050Z,47.02
2018-03-03T18:05:10.542Z,47.16
2018-03-03T18:07:38.955Z,47.14
2018-03-03T18:10:07.393Z,47.38
2018-03-03T18:12:35.914Z,47.50
2018-03-03T18:15:04.358Z,47.44
2018-03-03T18:17:32.799Z,47.75
2018-03-03T18:20:01.263Z,47.92
2018-03-03T18:22:29.669Z,47.87
2018-03-03T18:24:58.089Z,48.04
2018-03-03T18:27:26.566Z,48.04
2018-03-03T18:29:55.029Z,48.11
2018-03-03T18:32:23.464Z,48.15
2018-03-03T18:34:51.935Z,48.28
2018-03-03T18:37:20.347Z,48.01
2018-03-03T18:39:48.777Z,48.03
2018-03-03T18:42:17.234Z,47.84
2018-03-03T18:44:45.651Z,48.15
2018-03-03T18:47:14.062Z,48.09
2018-03-03T18:49:42.541Z,48.07
2018-03-03T18:52:10.970Z,47.99
2018-03-03T18:54:39.381Z,48.13
2018-03-03T18:57:07.855Z,48.32
2018-03-03T18:59:36.275Z,48.17
2018-03-03T19:02:04.728Z,48.20
2018-03-03T19:04:33.210Z,48.24
2018-03-03T19:07:01.647Z,48.31
2018-03-03T19:09:30.085Z,48.55
2018-03-03T19:11:58.716Z,48.29
2018-03-03T19:14:27.154Z,48.56
2018-03-03T19:16:55.642Z,48.46
2018-03-03T19:19:24.105Z,48.71
2018-03-03T19:21:52.533Z,48.86
2018-03-03T19:24:20.946Z,48.86
2018-03-03T19:26:49.439Z,48.99
2018-03-03T19:29:17.861Z,49.32
2018-03-03T19:31:46.274Z,48.88
2018-03-03T19:34:14.732Z,49.15
2018-03-03T19:36:43.153Z,49.21
2018-03-03T19:39:11.584Z,49.09
2018-03-03T19:41:40.088Z,49.36
2018-03-03T19:44:08.514Z,49.60
2018-03-03T19:46:36.956Z,49.61
2018-03-03T19:49:05.423Z,49.24
2018-03-03T19:51:33.838Z,49.63
2018-03-03T19:54:02.259Z,49.46
2018-03-03T19:56:30.740Z,49.67
2018-03-03T19:58:59.178Z,49.36
2018-03-03T20:01:27.593Z,49.67
2018-03-03T20:03:56.114Z,49.70
2018-03-03T20:06:24.543Z,49.87
2018-03-03T20:08:52.970Z,49.66
2018-03-03T20:11:21.444Z,49.63
2018-03-03T20:13:49.877Z,49.83
2018-03-03T20:16:18.286Z,50.07
2018-03-03T20:18:46.773Z,49.35
2018-03-03T20:21:15.213Z,49.56
2018-03-03T20:23:43.649Z,49.74
2018-03-03T20:26:12.121Z,49.92
2018-03-03T20:28:40.543Z,49.99
2018-03-03T20:31:08.981Z,49.94
2018-03-03T20:33:37.446Z,49.80
2018-03-03T20:36:05.868Z,50.09
2018-03-03T20:38:34.300Z,49.97
2018-03-03T20:41:02.781Z,50.26
2018-03-03T20:43:31.210Z,50.07
2018-03-03T20:45:59.630Z,50.40
2018-03-03T20:48:28.096Z,50.35
2018-03-03T20:50:56.533Z,50.53
2018-03-03T20:53:24.981Z,50.48
2018-03-03T20:55:53.510Z,50.65
2018-03-03T20:58:21.951Z,50.79
2018-03-03T21:00:50.529Z,50.93
2018-03-03T21:03:19.026Z,50.83
2018-03-03T21:05:47.487Z,50.65
2018-03-03T21:08:15.907Z,50.58
2018-03-03T21:10:44.381Z,50.32
2018-03-03T21:13:12.842Z,50.31
2018-03-03T21:15:41.277Z,50.60
2018-03-03T21:18:09.748Z,50.54
2018-03-03T21:20:38.184Z,50.53
2018-03-03T21:23:06.602Z,50.59
2018-03-03T21:25:35.081Z,50.65
2018-03-03T21:28:03.500Z,50.61
2018-03-03T21:30:31.919Z,50.57
2018-03-03T21:33:00.392Z,50.57
2018-03-03T21:35:28.825Z,50.59
2018-03-03T21:37:57.253Z,50.67
2018-03-03T21:40:25.715Z,50.75
2018-03-03T21:42:54.136Z,51.25
2018-03-03T21:45:22.550Z,51.09
2018-03-03T21:47:51.020Z,51.04
2018-03-03T21:50:19.467Z,51.21
2018-03-03T21:52:47.903Z,51.03
2018-03-03T21:55:16.367Z,51.40
2018-03-03T21:57:44.783Z,51.50
2018-03-03T22:00:13.239Z,51.52
2018-03-03T22:02:41.771Z,51.36
2018-03-03T22:05:10.216Z,51.21
2018-03-03T22:07:38.662Z,51.33
2018-03-03T22:10:07.254Z,51.55
2018-03-03T22:12:35.653Z,51.35
2018-03-03T22:15:04.176Z,51.59
2018-03-03T22:17:33.601Z,51.64
2018-03-03T22:20:02.043Z,52.03
2018-03-03T22:22:30.488Z,52.16
2018-03-03T22:24:58.990Z,51.99
2018-03-03T22:27:27.422Z,51.97
2018-03-03T22:29:55.858Z,51.98
2018-03-03T22:32:24.329Z,52.04
2018-03-03T22:34:52.758Z,51.99
2018-03-03T22:37:21.194Z,52.21
2018-03-03T22:39:49.673Z,52.36
2018-03-03T22:42:19.223Z,52.47
2018-03-03T22:44:47.671Z,52.97
2018-03-03T22:47:16.156Z,53.04
2018-03-03T22:49:44.589Z,53.29
2018-03-03T22:52:13.045Z,53.28
2018-03-03T22:54:41.513Z,53.22
2018-03-03T22:57:09.939Z,53.45
2018-03-03T22:59:38.380Z,53.57
2018-03-03T23:02:06.874Z,53.56
2018-03-03T23:04:35.298Z,53.51
2018-03-03T23:07:03.715Z,53.59
2018-03-03T23:09:32.179Z,53.91
2018-03-03T23:12:00.619Z,53.85
2018-03-03T23:14:29.057Z,53.87
2018-03-03T23:16:57.541Z,53.53
2018-03-03T23:19:25.996Z,53.31
2018-03-03T23:21:54.437Z,53.56
2018-03-03T23:24:22.917Z,53.71
2018-03-03T23:26:51.365Z,53.55
2018-03-03T23:29:19.798Z,53.65
2018-03-03T23:31:48.257Z,53.50
2018-03-03T23:34:16.690Z,53.35
2018-03-03T23:36:45.111Z,53.45
2018-03-03T23:39:13.600Z,53.54
2018-03-03T23:41:42.049Z,53.76
2018-03-03T23:44:10.478Z,53.65
2018-03-03T23:46:38.953Z,53.77
2018-03-03T23:49:07.374Z,54.06
2018-03-03T23:51:35.804Z,54.09
2018-03-03T23:54:04.632Z,54.12
2018-03-03T23:56:33.061Z,54.40
2018-03-03T23:59:01.478Z,54.43
